Aviation Digital Data Service (ADDS)

Output produced by METARs form (2203 UTC 29 September 2016)
found at http://www.aviationweather.gov/adds/metars/
 
METAR text: EPKT 292200Z 22007KT 190V250 CAVOK 17/10 Q1016
Conditions at: EPKT (KATOWICE/PYRZOWI, PL) observed 2200 UTC 29 September 2016
Temperature: 17.0°C (63°F)
Dewpoint: 10.0°C (50°F) [RH = 63%]
Pressure (altimeter): 30.00 inches Hg (1016.0 mb)
Winds: from the SW (220 degrees) at 8 MPH (7 knots; 3.6 m/s)
Visibility: 6 or more miles (10+ km)
Ceiling: ceiling and visibility are OK
Clouds: unknown
Weather: no significant weather observed at this time

Forecast for: EPKT (KATOWICE/PYRZOWI, PL)
Text: TAF EPKT 291730Z 2918/3018 22008KT CAVOK
Forecast period: 1800 UTC 29 September 2016 to 1800 UTC 30 September 2016
Forecast type: FROM: standard forecast or significant change
Winds: from the SW (220 degrees) at 9 MPH (8 knots; 4.2 m/s)
Visibility: 6 or more miles (10+ km)
Clouds: not forecast
Weather: NSW  (no significant weather)
Text: PROB40
Forecast period: 0800 to 1400 UTC 30 September 2016
Forecast type: TEMPORARY: The following changes expected for less than half the time period
Winds: from the WSW (250 degrees) at 17 MPH (15 knots; 7.8 m/s)
gusting to 29 MPH (25 knots; 13.0 m/s)
Weather: no significant weather forecast for this period